sensor_id;sensor_type;location;lat;lon;timestamp;pressure;altitude;pressure_sealevel;temperature;humidity
74573;BME280;73017;50.810;4.428;2024-02-26T00:02:16;98863.94;;;20.76;43.06
74573;BME280;73017;50.810;4.428;2024-02-26T00:04:41;98869.91;;;20.84;42.88
74573;BME280;73017;50.810;4.428;2024-02-26T00:07:07;98875.56;;;20.86;42.68
74573;BME280;73017;50.810;4.428;2024-02-26T00:09:32;98858.69;;;20.72;42.61
74573;BME280;73017;50.810;4.428;2024-02-26T00:12:04;98853.75;;;20.71;42.67
74573;BME280;73017;50.810;4.428;2024-02-26T00:14:30;98860.22;;;20.70;43.23
74573;BME280;73017;50.810;4.428;2024-02-26T00:16:56;98860.09;;;20.80;42.42
74573;BME280;73017;50.810;4.428;2024-02-26T00:19:21;98858.97;;;20.78;43.17
74573;BME280;73017;50.810;4.428;2024-02-26T00:21:47;98865.78;;;20.79;43.42
74573;BME280;73017;50.810;4.428;2024-02-26T00:24:13;98858.25;;;20.74;42.77
74573;BME280;73017;50.810;4.428;2024-02-26T00:26:38;98867.28;;;20.80;42.46
74573;BME280;73017;50.810;4.428;2024-02-26T00:29:04;98847.78;;;20.63;43.12
74573;BME280;73017;50.810;4.428;2024-02-26T00:31:30;98870.75;;;20.77;42.73
74573;BME280;73017;50.810;4.428;2024-02-26T00:33:56;98861.97;;;20.80;42.46
74573;BME280;73017;50.810;4.428;2024-02-26T00:36:21;98842.47;;;20.63;43.19
74573;BME280;73017;50.810;4.428;2024-02-26T00:38:47;98870.28;;;20.82;43.11
74573;BME280;73017;50.810;4.428;2024-02-26T00:41:19;98871.81;;;20.83;42.88
74573;BME280;73017;50.810;4.428;2024-02-26T00:43:45;98848.84;;;20.69;42.77
74573;BME280;73017;50.810;4.428;2024-02-26T00:46:10;98840.13;;;20.69;42.64
74573;BME280;73017;50.810;4.428;2024-02-26T00:48:36;98871.78;;;20.87;42.81
74573;BME280;73017;50.810;4.428;2024-02-26T00:51:03;98838.63;;;20.68;42.97
74573;BME280;73017;50.810;4.428;2024-02-26T00:53:31;98853.66;;;20.78;42.33
74573;BME280;73017;50.810;4.428;2024-02-26T00:55:57;98852.88;;;20.81;42.87
74573;BME280;73017;50.810;4.428;2024-02-26T00:58:24;98863.47;;;20.85;43.10
74573;BME280;73017;50.810;4.428;2024-02-26T01:00:50;98863.50;;;20.81;42.46
74573;BME280;73017;50.810;4.428;2024-02-26T01:03:15;98860.09;;;20.80;42.98
74573;BME280;73017;50.810;4.428;2024-02-26T01:05:41;98865.78;;;20.79;42.76
74573;BME280;73017;50.810;4.428;2024-02-26T01:08:07;98864.25;;;20.81;42.48
74573;BME280;73017;50.810;4.428;2024-02-26T01:10:33;98873.38;;;20.80;42.63
74573;BME280;73017;50.810;4.428;2024-02-26T01:12:59;98868.09;;;20.77;42.15
74573;BME280;73017;50.810;4.428;2024-02-26T01:15:25;98865.44;;;20.77;42.34
74573;BME280;73017;50.810;4.428;2024-02-26T01:17:50;98852.22;;;20.73;43.06
74573;BME280;73017;50.810;4.428;2024-02-26T01:20:16;98828.09;;;20.60;43.08
74573;BME280;73017;50.810;4.428;2024-02-26T01:22:43;98849.91;;;20.75;42.90
74573;BME280;73017;50.810;4.428;2024-02-26T01:25:08;98856.78;;;20.73;43.10
74573;BME280;73017;50.810;4.428;2024-02-26T01:27:38;98826.59;;;20.56;42.63
74573;BME280;73017;50.810;4.428;2024-02-26T01:30:04;98850.75;;;20.69;42.16
74573;BME280;73017;50.810;4.428;2024-02-26T01:32:30;98846.94;;;20.70;42.50
74573;BME280;73017;50.810;4.428;2024-02-26T01:34:56;98842.06;;;20.65;43.00
74573;BME280;73017;50.810;4.428;2024-02-26T01:37:22;98824.38;;;20.51;42.40
74573;BME280;73017;50.810;4.428;2024-02-26T01:39:47;98845.88;;;20.64;42.99
74573;BME280;73017;50.810;4.428;2024-02-26T01:42:12;98831.97;;;20.52;42.61
74573;BME280;73017;50.810;4.428;2024-02-26T01:44:38;98819.91;;;20.44;43.12
74573;BME280;73017;50.810;4.428;2024-02-26T01:47:05;98830.88;;;20.46;43.05
74573;BME280;73017;50.810;4.428;2024-02-26T01:49:34;98836.47;;;20.55;42.79
74573;BME280;73017;50.810;4.428;2024-02-26T01:52:03;98853.50;;;20.58;43.29
74573;BME280;73017;50.810;4.428;2024-02-26T01:54:30;98835.47;;;20.42;43.42
74573;BME280;73017;50.810;4.428;2024-02-26T01:56:57;98858.78;;;20.61;43.08
74573;BME280;73017;50.810;4.428;2024-02-26T01:59:23;98846.00;;;20.49;42.87
74573;BME280;73017;50.810;4.428;2024-02-26T02:01:55;98833.25;;;20.37;42.85
74573;BME280;73017;50.810;4.428;2024-02-26T02:04:21;98855.06;;;20.52;42.84
74573;BME280;73017;50.810;4.428;2024-02-26T02:06:48;98852.41;;;20.52;43.72
74573;BME280;73017;50.810;4.428;2024-02-26T02:09:14;98835.16;;;20.36;43.27
74573;BME280;73017;50.810;4.428;2024-02-26T02:11:39;98836.75;;;20.30;43.50
74573;BME280;73017;50.810;4.428;2024-02-26T02:14:05;98851.34;;;20.46;42.81
74573;BME280;73017;50.810;4.428;2024-02-26T02:16:31;98839.03;;;20.28;43.00
74573;BME280;73017;50.810;4.428;2024-02-26T02:18:58;98858.56;;;20.45;43.41
74573;BME280;73017;50.810;4.428;2024-02-26T02:21:24;98855.63;;;20.36;43.47
74573;BME280;73017;50.810;4.428;2024-02-26T02:23:49;98838.28;;;20.28;43.47
74573;BME280;73017;50.810;4.428;2024-02-26T02:26:16;98838.28;;;20.28;43.00
74573;BME280;73017;50.810;4.428;2024-02-26T02:28:41;98843.63;;;20.24;43.06
74573;BME280;73017;50.810;4.428;2024-02-26T02:31:07;98855.59;;;20.39;43.03
74573;BME280;73017;50.810;4.428;2024-02-26T02:33:34;98833.44;;;20.19;43.82
74573;BME280;73017;50.810;4.428;2024-02-26T02:36:00;98845.53;;;20.24;43.51
74573;BME280;73017;50.810;4.428;2024-02-26T02:38:25;98866.25;;;20.36;43.22
74573;BME280;73017;50.810;4.428;2024-02-26T02:40:54;98868.56;;;20.34;43.20
74573;BME280;73017;50.810;4.428;2024-02-26T02:43:19;98841.44;;;20.15;43.57
74573;BME280;73017;50.810;4.428;2024-02-26T02:45:45;98867.41;;;20.31;43.34
74573;BME280;73017;50.810;4.428;2024-02-26T02:48:11;98872.38;;;20.29;43.41
74573;BME280;73017;50.810;4.428;2024-02-26T02:50:36;98862.16;;;20.28;43.13
74573;BME280;73017;50.810;4.428;2024-02-26T02:53:02;98860.28;;;20.25;43.46
74573;BME280;73017;50.810;4.428;2024-02-26T02:55:27;98858.38;;;20.25;43.10
74573;BME280;73017;50.810;4.428;2024-02-26T02:57:53;98851.19;;;20.26;43.22
74573;BME280;73017;50.810;4.428;2024-02-26T03:00:19;98857.22;;;20.30;43.74
74573;BME280;73017;50.810;4.428;2024-02-26T03:02:44;98823.31;;;20.10;43.82
74573;BME280;73017;50.810;4.428;2024-02-26T03:05:11;98855.00;;;20.21;43.66
74573;BME280;73017;50.810;4.428;2024-02-26T03:07:37;98839.22;;;20.10;43.62
74573;BME280;73017;50.810;4.428;2024-02-26T03:10:02;98872.41;;;20.26;43.94
74573;BME280;73017;50.810;4.428;2024-02-26T03:12:28;98850.22;;;20.05;43.12
74573;BME280;73017;50.810;4.428;2024-02-26T03:14:53;98880.06;;;20.20;43.67
74573;BME280;73017;50.810;4.428;2024-02-26T03:17:20;98886.81;;;20.25;44.08
74573;BME280;73017;50.810;4.428;2024-02-26T03:19:46;98857.81;;;20.07;43.64
74573;BME280;73017;50.810;4.428;2024-02-26T03:22:13;98879.59;;;20.25;43.68
74573;BME280;73017;50.810;4.428;2024-02-26T03:24:38;98875.84;;;20.23;43.53
74573;BME280;73017;50.810;4.428;2024-02-26T03:27:04;98864.22;;;20.09;43.68
74573;BME280;73017;50.810;4.428;2024-02-26T03:29:37;98860.47;;;20.07;43.00
74573;BME280;73017;50.810;4.428;2024-02-26T03:32:03;98879.31;;;20.19;43.37
74573;BME280;73017;50.810;4.428;2024-02-26T03:34:29;98850.28;;;20.01;43.43
74573;BME280;73017;50.810;4.428;2024-02-26T03:36:56;98876.31;;;20.14;43.51
74573;BME280;73017;50.810;4.428;2024-02-26T03:39:22;98850.31;;;19.98;43.51
74573;BME280;73017;50.810;4.428;2024-02-26T03:41:48;98881.19;;;20.19;43.89
74573;BME280;73017;50.810;4.428;2024-02-26T03:44:13;98878.59;;;20.15;43.33
74573;BME280;73017;50.810;4.428;2024-02-26T03:46:39;98888.41;;;20.15;43.23
74573;BME280;73017;50.810;4.428;2024-02-26T03:49:04;98861.66;;;19.98;44.09
74573;BME280;73017;50.810;4.428;2024-02-26T03:51:30;98862.03;;;20.00;43.17
74573;BME280;73017;50.810;4.428;2024-02-26T03:54:00;98882.41;;;20.11;43.13
74573;BME280;73017;50.810;4.428;2024-02-26T03:56:26;98863.97;;;19.96;43.38
74573;BME280;73017;50.810;4.428;2024-02-26T03:58:52;98899.81;;;20.15;43.58
74573;BME280;73017;50.810;4.428;2024-02-26T04:01:17;98904.69;;;20.17;43.18
74573;BME280;73017;50.810;4.428;2024-02-26T04:03:43;98906.22;;;20.18;44.06
74573;BME280;73017;50.810;4.428;2024-02-26T04:06:10;98894.13;;;20.13;43.37
74573;BME280;73017;50.810;4.428;2024-02-26T04:08:43;98885.84;;;20.08;43.34
74573;BME280;73017;50.810;4.428;2024-02-26T04:11:09;98913.00;;;20.23;43.06
74573;BME280;73017;50.810;4.428;2024-02-26T04:13:35;98884.72;;;20.05;43.18
74573;BME280;73017;50.810;4.428;2024-02-26T04:16:00;98921.69;;;20.23;43.51
74573;BME280;73017;50.810;4.428;2024-02-26T04:18:27;98918.66;;;20.25;43.45
74573;BME280;73017;50.810;4.428;2024-02-26T04:20:53;98920.91;;;20.26;43.54
74573;BME280;73017;50.810;4.428;2024-02-26T04:23:19;98902.50;;;20.08;43.36
74573;BME280;73017;50.810;4.428;2024-02-26T04:25:45;98920.91;;;20.26;43.51
74573;BME280;73017;50.810;4.428;2024-02-26T04:28:10;98922.47;;;20.24;43.44
74573;BME280;73017;50.810;4.428;2024-02-26T04:30:36;98905.13;;;20.12;43.29
74573;BME280;73017;50.810;4.428;2024-02-26T04:33:02;98914.97;;;20.11;42.90
74573;BME280;73017;50.810;4.428;2024-02-26T04:35:29;98903.63;;;20.07;43.11
74573;BME280;73017;50.810;4.428;2024-02-26T04:37:55;98900.97;;;20.07;43.09
74573;BME280;73017;50.810;4.428;2024-02-26T04:40:21;98930.38;;;20.27;43.12
74573;BME280;73017;50.810;4.428;2024-02-26T04:42:46;98902.88;;;20.10;43.40
74573;BME280;73017;50.810;4.428;2024-02-26T04:45:12;98940.97;;;20.27;43.44
74573;BME280;73017;50.810;4.428;2024-02-26T04:47:37;98934.94;;;20.27;43.20
74573;BME280;73017;50.810;4.428;2024-02-26T04:50:03;98948.59;;;20.25;43.36
74573;BME280;73017;50.810;4.428;2024-02-26T04:52:28;98945.91;;;20.29;43.07
74573;BME280;73017;50.810;4.428;2024-02-26T04:54:54;98947.44;;;20.30;43.83
74573;BME280;73017;50.810;4.428;2024-02-26T04:57:21;98953.88;;;20.29;42.93
74573;BME280;73017;50.810;4.428;2024-02-26T04:59:46;98957.69;;;20.28;43.07
74573;BME280;73017;50.810;4.428;2024-02-26T05:02:12;98964.47;;;20.29;43.12
74573;BME280;73017;50.810;4.428;2024-02-26T05:04:38;98942.63;;;20.14;42.98
74573;BME280;73017;50.810;4.428;2024-02-26T05:07:04;98961.47;;;20.27;43.55
74573;BME280;73017;50.810;4.428;2024-02-26T05:09:31;98961.81;;;20.29;43.49
74573;BME280;73017;50.810;4.428;2024-02-26T05:11:57;98959.25;;;20.21;43.31
74573;BME280;73017;50.810;4.428;2024-02-26T05:14:22;98971.69;;;20.28;43.33
74573;BME280;73017;50.810;4.428;2024-02-26T05:16:48;98970.94;;;20.28;43.08
74573;BME280;73017;50.810;4.428;2024-02-26T05:19:13;98955.88;;;20.14;43.27
74573;BME280;73017;50.810;4.428;2024-02-26T05:21:39;98976.25;;;20.28;43.11
74573;BME280;73017;50.810;4.428;2024-02-26T05:24:05;98971.69;;;20.28;43.58
74573;BME280;73017;50.810;4.428;2024-02-26T05:26:31;98969.41;;;20.27;43.26
74573;BME280;73017;50.810;4.428;2024-02-26T05:28:56;98983.03;;;20.29;42.68
74573;BME280;73017;50.810;4.428;2024-02-26T05:31:26;98985.34;;;20.27;42.78
74573;BME280;73017;50.810;4.428;2024-02-26T05:33:51;98976.63;;;20.26;43.18
74573;BME280;73017;50.810;4.428;2024-02-26T05:36:20;98987.22;;;20.30;43.59
74573;BME280;73017;50.810;4.428;2024-02-26T05:38:47;98979.66;;;20.28;43.30
74573;BME280;73017;50.810;4.428;2024-02-26T05:41:15;98972.16;;;20.19;43.08
74573;BME280;73017;50.810;4.428;2024-02-26T05:43:41;98968.44;;;20.10;43.61
74573;BME280;73017;50.810;4.428;2024-02-26T05:46:06;98969.19;;;20.10;43.39
74573;BME280;73017;50.810;4.428;2024-02-26T05:48:31;98969.56;;;20.09;43.36
74573;BME280;73017;50.810;4.428;2024-02-26T05:50:57;98992.56;;;20.26;43.67
74573;BME280;73017;50.810;4.428;2024-02-26T05:53:22;98998.59;;;20.27;43.53
74573;BME280;73017;50.810;4.428;2024-02-26T05:55:48;98980.16;;;20.12;43.54
74573;BME280;73017;50.810;4.428;2024-02-26T05:58:13;99005.03;;;20.29;43.41
74573;BME280;73017;50.810;4.428;2024-02-26T06:00:39;99017.91;;;20.31;43.05
74573;BME280;73017;50.810;4.428;2024-02-26T06:03:04;99016.00;;;20.31;43.05
74573;BME280;73017;50.810;4.428;2024-02-26T06:05:30;99002.50;;;20.11;43.28
74573;BME280;73017;50.810;4.428;2024-02-26T06:07:55;98998.72;;;20.09;43.14
74573;BME280;73017;50.810;4.428;2024-02-26T06:10:21;99025.50;;;20.29;43.65
74573;BME280;73017;50.810;4.428;2024-02-26T06:12:47;99019.47;;;20.21;43.36
74573;BME280;73017;50.810;4.428;2024-02-26T06:15:13;99047.47;;;20.29;43.57
74573;BME280;73017;50.810;4.428;2024-02-26T06:17:38;99044.44;;;20.27;43.09
74573;BME280;73017;50.810;4.428;2024-02-26T06:20:04;99041.44;;;20.25;43.14
74573;BME280;73017;50.810;4.428;2024-02-26T06:22:31;99021.06;;;20.11;43.18
74573;BME280;73017;50.810;4.428;2024-02-26T06:24:57;99058.13;;;20.26;43.08
74573;BME280;73017;50.810;4.428;2024-02-26T06:27:23;99031.31;;;20.09;43.07
74573;BME280;73017;50.810;4.428;2024-02-26T06:29:49;99062.69;;;20.21;43.10
74573;BME280;73017;50.810;4.428;2024-02-26T06:32:15;99070.25;;;20.23;43.13
74573;BME280;73017;50.810;4.428;2024-02-26T06:34:40;99057.09;;;20.09;43.31
74573;BME280;73017;50.810;4.428;2024-02-26T06:37:07;99081.28;;;20.21;43.27
74573;BME280;73017;50.810;4.428;2024-02-26T06:39:33;99083.94;;;20.21;43.69
74573;BME280;73017;50.810;4.428;2024-02-26T06:41:59;99087.72;;;20.20;43.59
74573;BME280;73017;50.810;4.428;2024-02-26T06:44:28;99092.28;;;20.20;43.27
74573;BME280;73017;50.810;4.428;2024-02-26T06:46:59;99091.16;;;20.17;43.47
74573;BME280;73017;50.810;4.428;2024-02-26T06:49:25;99100.59;;;20.22;43.66
74573;BME280;73017;50.810;4.428;2024-02-26T06:51:51;99101.34;;;20.23;43.07
74573;BME280;73017;50.810;4.428;2024-02-26T06:54:16;99104.78;;;20.19;43.77
74573;BME280;73017;50.810;4.428;2024-02-26T06:56:42;99088.16;;;20.08;43.69
74573;BME280;73017;50.810;4.428;2024-02-26T06:59:07;99093.84;;;20.10;43.27
74573;BME280;73017;50.810;4.428;2024-02-26T07:01:33;99096.88;;;20.09;43.13
74573;BME280;73017;50.810;4.428;2024-02-26T07:03:58;99097.97;;;20.11;43.61
74573;BME280;73017;50.810;4.428;2024-02-26T07:06:24;99100.69;;;20.08;43.05
74573;BME280;73017;50.810;4.428;2024-02-26T07:08:49;99131.63;;;20.25;43.62
74573;BME280;73017;50.810;4.428;2024-02-26T07:11:15;99104.06;;;20.08;43.51
74573;BME280;73017;50.810;4.428;2024-02-26T07:13:40;99112.41;;;20.07;42.98
74573;BME280;73017;50.810;4.428;2024-02-26T07:16:05;99121.91;;;20.08;43.61
74573;BME280;73017;50.810;4.428;2024-02-26T07:18:31;99140.75;;;20.24;43.12
74573;BME280;73017;50.810;4.428;2024-02-26T07:20:56;99135.50;;;20.13;43.74
74573;BME280;73017;50.810;4.428;2024-02-26T07:23:22;99161.22;;;20.24;43.32
74573;BME280;73017;50.810;4.428;2024-02-26T07:25:47;99137.41;;;20.09;43.63
74573;BME280;73017;50.810;4.428;2024-02-26T07:28:15;99168.03;;;20.25;43.39
74573;BME280;73017;50.810;4.428;2024-02-26T07:30:40;99172.22;;;20.26;43.19
74573;BME280;73017;50.810;4.428;2024-02-26T07:33:06;99180.91;;;20.26;43.67
74573;BME280;73017;50.810;4.428;2024-02-26T07:35:32;99176.75;;;20.25;43.38
74573;BME280;73017;50.810;4.428;2024-02-26T07:37:58;99193.81;;;20.28;43.13
74573;BME280;73017;50.810;4.428;2024-02-26T07:40:24;99185.84;;;20.24;42.97
74573;BME280;73017;50.810;4.428;2024-02-26T07:42:49;99188.50;;;20.24;43.30
74573;BME280;73017;50.810;4.428;2024-02-26T07:45:15;99192.28;;;20.27;42.88
74573;BME280;73017;50.810;4.428;2024-02-26T07:47:40;99172.25;;;20.11;43.61
74573;BME280;73017;50.810;4.428;2024-02-26T07:50:07;99189.63;;;20.23;43.33
74573;BME280;73017;50.810;4.428;2024-02-26T07:52:33;99197.59;;;20.27;43.21
74573;BME280;73017;50.810;4.428;2024-02-26T07:54:59;99204.41;;;20.28;42.96
74573;BME280;73017;50.810;4.428;2024-02-26T07:57:24;99208.94;;;20.27;43.04
74573;BME280;73017;50.810;4.428;2024-02-26T07:59:50;99204.03;;;20.26;42.87
74573;BME280;73017;50.810;4.428;2024-02-26T08:02:16;99190.06;;;20.07;42.93
74573;BME280;73017;50.810;4.428;2024-02-26T08:04:41;99207.47;;;20.19;43.33
74573;BME280;73017;50.810;4.428;2024-02-26T08:07:07;99192.34;;;20.05;44.29
74573;BME280;73017;50.810;4.428;2024-02-26T08:09:32;99201.84;;;20.02;43.63
74573;BME280;73017;50.810;4.428;2024-02-26T08:11:58;99199.56;;;20.01;44.48
74573;BME280;73017;50.810;4.428;2024-02-26T08:14:24;99207.53;;;20.01;44.96
74573;BME280;73017;50.810;4.428;2024-02-26T08:16:49;99234.00;;;20.19;45.04
74573;BME280;73017;50.810;4.428;2024-02-26T08:19:15;99246.88;;;20.20;45.22
74573;BME280;73017;50.810;4.428;2024-02-26T08:21:41;99246.88;;;20.20;46.02
74573;BME280;73017;50.810;4.428;2024-02-26T08:24:07;99256.38;;;20.21;46.42
74573;BME280;73017;50.810;4.428;2024-02-26T08:26:32;99252.56;;;20.23;46.37
74573;BME280;73017;50.810;4.428;2024-02-26T08:28:57;99257.13;;;20.22;46.66
74573;BME280;73017;50.810;4.428;2024-02-26T08:31:23;99241.25;;;20.08;46.09
74573;BME280;73017;50.810;4.428;2024-02-26T08:33:49;99241.63;;;20.02;45.77
74573;BME280;73017;50.810;4.428;2024-02-26T08:36:14;99266.97;;;20.21;46.18
74573;BME280;73017;50.810;4.428;2024-02-26T08:38:40;99250.34;;;20.07;46.37
74573;BME280;73017;50.810;4.428;2024-02-26T08:41:05;99268.50;;;20.15;46.33
74573;BME280;73017;50.810;4.428;2024-02-26T08:43:31;99253.00;;;20.07;46.60
74573;BME280;73017;50.810;4.428;2024-02-26T08:45:57;99299.56;;;20.22;46.58
74573;BME280;73017;50.810;4.428;2024-02-26T08:48:22;99306.00;;;20.25;47.08
74573;BME280;73017;50.810;4.428;2024-02-26T08:50:48;99280.66;;;20.06;46.51
74573;BME280;73017;50.810;4.428;2024-02-26T08:53:13;99303.34;;;20.21;46.75
74573;BME280;73017;50.810;4.428;2024-02-26T08:55:39;99313.94;;;20.21;46.58
74573;BME280;73017;50.810;4.428;2024-02-26T08:58:04;99309.81;;;20.20;46.58
74573;BME280;73017;50.810;4.428;2024-02-26T09:00:30;99325.72;;;20.20;46.43
74573;BME280;73017;50.810;4.428;2024-02-26T09:02:56;99318.50;;;20.20;47.12
74573;BME280;73017;50.810;4.428;2024-02-26T09:05:21;99293.16;;;20.05;46.52
74573;BME280;73017;50.810;4.428;2024-02-26T09:07:47;99296.56;;;20.02;46.43
74573;BME280;73017;50.810;4.428;2024-02-26T09:10:12;99322.31;;;20.19;46.63
74573;BME280;73017;50.810;4.428;2024-02-26T09:12:38;99306.41;;;20.05;46.31
74573;BME280;73017;50.810;4.428;2024-02-26T09:15:07;99328.75;;;20.18;46.44
74573;BME280;73017;50.810;4.428;2024-02-26T09:17:33;99316.25;;;20.08;46.45
74573;BME280;73017;50.810;4.428;2024-02-26T09:19:58;99311.75;;;20.01;46.59
74573;BME280;73017;50.810;4.428;2024-02-26T09:22:24;99314.75;;;20.04;46.57
74573;BME280;73017;50.810;4.428;2024-02-26T09:24:49;99329.91;;;20.10;46.14
74573;BME280;73017;50.810;4.428;2024-02-26T09:27:16;99339.34;;;20.15;46.02
74573;BME280;73017;50.810;4.428;2024-02-26T09:29:42;99359.09;;;20.17;45.93
74573;BME280;73017;50.810;4.428;2024-02-26T09:32:08;99329.94;;;19.99;46.15
74573;BME280;73017;50.810;4.428;2024-02-26T09:34:33;99337.84;;;20.03;46.09
74573;BME280;73017;50.810;4.428;2024-02-26T09:36:59;99354.16;;;20.09;45.40
74573;BME280;73017;50.810;4.428;2024-02-26T09:39:25;99365.88;;;20.15;45.30
74573;BME280;73017;50.810;4.428;2024-02-26T09:41:51;99342.03;;;19.97;45.68
74573;BME280;73017;50.810;4.428;2024-02-26T09:44:20;99382.59;;;20.15;45.46
74573;BME280;73017;50.810;4.428;2024-02-26T09:46:52;99346.59;;;20.00;45.74
74573;BME280;73017;50.810;4.428;2024-02-26T09:49:23;99355.69;;;19.99;45.41
74573;BME280;73017;50.810;4.428;2024-02-26T09:51:49;99352.28;;;19.98;45.64
74573;BME280;73017;50.810;4.428;2024-02-26T09:54:16;99365.53;;;20.06;45.43
74573;BME280;73017;50.810;4.428;2024-02-26T09:56:42;99382.59;;;20.15;45.46
74573;BME280;73017;50.810;4.428;2024-02-26T09:59:15;99394.69;;;20.16;45.66
74573;BME280;73017;50.810;4.428;2024-02-26T10:01:44;99381.44;;;20.02;45.34
74573;BME280;73017;50.810;4.428;2024-02-26T10:04:11;99402.66;;;20.16;45.34
74573;BME280;73017;50.810;4.428;2024-02-26T10:06:37;99402.28;;;20.11;45.09
74573;BME280;73017;50.810;4.428;2024-02-26T10:09:03;99389.78;;;19.97;44.93
74573;BME280;73017;50.810;4.428;2024-02-26T10:11:32;99402.28;;;20.04;44.79
74573;BME280;73017;50.810;4.428;2024-02-26T10:13:58;99401.91;;;19.98;44.91
74573;BME280;73017;50.810;4.428;2024-02-26T10:16:27;99397.34;;;19.98;45.04
74573;BME280;73017;50.810;4.428;2024-02-26T10:18:53;99437.13;;;20.16;45.38
74573;BME280;73017;50.810;4.428;2024-02-26T10:21:22;99429.97;;;20.13;45.41
74573;BME280;73017;50.810;4.428;2024-02-26T10:23:49;99410.25;;;19.96;45.35
74573;BME280;73017;50.810;4.428;2024-02-26T10:26:16;99418.19;;;19.96;45.52
74573;BME280;73017;50.810;4.428;2024-02-26T10:28:44;99447.75;;;20.16;45.48
74573;BME280;73017;50.810;4.428;2024-02-26T10:31:10;99431.81;;;20.09;45.07
74573;BME280;73017;50.810;4.428;2024-02-26T10:33:37;99448.50;;;20.17;44.71
74573;BME280;73017;50.810;4.428;2024-02-26T10:36:04;99463.66;;;20.16;44.87
74573;BME280;73017;50.810;4.428;2024-02-26T10:38:31;99460.63;;;20.14;44.88
74573;BME280;73017;50.810;4.428;2024-02-26T10:40:57;99442.44;;;19.95;44.80
74573;BME280;73017;50.810;4.428;2024-02-26T10:43:22;99467.84;;;20.10;44.50
74573;BME280;73017;50.810;4.428;2024-02-26T10:45:48;99476.53;;;20.11;45.25
74573;BME280;73017;50.810;4.428;2024-02-26T10:48:14;99478.81;;;20.05;44.88
74573;BME280;73017;50.810;4.428;2024-02-26T10:50:40;99474.66;;;19.93;44.88
74573;BME280;73017;50.810;4.428;2024-02-26T10:53:13;99472.38;;;19.92;44.78
74573;BME280;73017;50.810;4.428;2024-02-26T10:55:41;99490.19;;;20.09;44.47
74573;BME280;73017;50.810;4.428;2024-02-26T10:58:08;99501.56;;;20.06;45.15
74573;BME280;73017;50.810;4.428;2024-02-26T11:00:35;99488.28;;;19.92;44.42
74573;BME280;73017;50.810;4.428;2024-02-26T11:03:04;99482.59;;;19.90;44.53
74573;BME280;73017;50.810;4.428;2024-02-26T11:05:31;99515.59;;;20.10;44.53
74573;BME280;73017;50.810;4.428;2024-02-26T11:07:59;99520.91;;;20.10;44.81
74573;BME280;73017;50.810;4.428;2024-02-26T11:10:27;99490.16;;;19.80;44.18
74573;BME280;73017;50.810;4.428;2024-02-26T11:12:59;99504.59;;;19.94;44.57
74573;BME280;73017;50.810;4.428;2024-02-26T11:15:28;99528.09;;;20.10;44.38
74573;BME280;73017;50.810;4.428;2024-02-26T11:17:56;99533.78;;;20.08;44.60
74573;BME280;73017;50.810;4.428;2024-02-26T11:20:23;99513.28;;;19.91;44.43
74573;BME280;73017;50.810;4.428;2024-02-26T11:22:49;99551.19;;;20.09;44.50
74573;BME280;73017;50.810;4.428;2024-02-26T11:25:14;99558.00;;;20.07;44.16
74573;BME280;73017;50.810;4.428;2024-02-26T11:27:50;99553.09;;;20.09;43.98
74573;BME280;73017;50.810;4.428;2024-02-26T11:30:18;99536.03;;;19.92;44.30
74573;BME280;73017;50.810;4.428;2024-02-26T11:32:45;99552.72;;;20.07;44.58
74573;BME280;73017;50.810;4.428;2024-02-26T11:35:16;99556.91;;;20.08;44.35
74573;BME280;73017;50.810;4.428;2024-02-26T11:38:02;99560.28;;;20.08;43.61
74573;BME280;73017;50.810;4.428;2024-02-26T11:40:31;99556.88;;;20.04;43.89
74573;BME280;73017;50.810;4.428;2024-02-26T11:42:58;99561.06;;;20.09;44.57
74573;BME280;73017;50.810;4.428;2024-02-26T11:48:14;99545.50;;;19.89;44.34
74573;BME280;73017;50.810;4.428;2024-02-26T11:50:46;99548.50;;;19.95;44.31
74573;BME280;73017;50.810;4.428;2024-02-26T11:55:47;99554.19;;;19.90;44.17
74573;BME280;73017;50.810;4.428;2024-02-26T11:58:14;99583.41;;;20.04;43.84
74573;BME280;73017;50.810;4.428;2024-02-26T12:00:40;99576.19;;;20.01;44.02
74573;BME280;73017;50.810;4.428;2024-02-26T12:03:06;99563.28;;;19.89;43.71
74573;BME280;73017;50.810;4.428;2024-02-26T12:05:34;99591.38;;;20.04;44.01
74573;BME280;73017;50.810;4.428;2024-02-26T12:08:08;99594.38;;;20.02;43.99
74573;BME280;73017;50.810;4.428;2024-02-26T12:10:36;99609.16;;;20.00;43.88
74573;BME280;73017;50.810;4.428;2024-02-26T12:13:16;99586.03;;;19.90;44.43
74573;BME280;73017;50.810;4.428;2024-02-26T12:15:55;99615.25;;;20.08;44.31
74573;BME280;73017;50.810;4.428;2024-02-26T12:18:22;99614.47;;;20.07;44.04
74573;BME280;73017;50.810;4.428;2024-02-26T12:21:02;99595.09;;;19.89;43.77
74573;BME280;73017;50.810;4.428;2024-02-26T12:23:28;99621.28;;;20.05;44.14
74573;BME280;73017;50.810;4.428;2024-02-26T12:25:58;99594.72;;;19.87;44.41
74573;BME280;73017;50.810;4.428;2024-02-26T12:28:28;99613.28;;;19.90;43.39
74573;BME280;73017;50.810;4.428;2024-02-26T12:30:54;99614.81;;;19.95;44.17
74573;BME280;73017;50.810;4.428;2024-02-26T12:33:20;99637.59;;;20.07;43.55
74573;BME280;73017;50.810;4.428;2024-02-26T12:35:45;99641.00;;;20.07;43.78
74573;BME280;73017;50.810;4.428;2024-02-26T12:38:14;99641.38;;;20.06;43.73
74573;BME280;73017;50.810;4.428;2024-02-26T12:40:40;99648.59;;;20.09;43.52
74573;BME280;73017;50.810;4.428;2024-02-26T12:43:07;99631.88;;;19.94;44.02
74573;BME280;73017;50.810;4.428;2024-02-26T12:45:39;99661.13;;;20.12;43.68
74573;BME280;73017;50.810;4.428;2024-02-26T12:48:05;99643.22;;;19.94;43.67
74573;BME280;73017;50.810;4.428;2024-02-26T12:50:31;99663.00;;;20.11;43.77
74573;BME280;73017;50.810;4.428;2024-02-26T12:52:58;99658.03;;;20.02;43.74
74573;BME280;73017;50.810;4.428;2024-02-26T12:55:24;99674.38;;;20.12;43.96
74573;BME280;73017;50.810;4.428;2024-02-26T12:57:52;99651.56;;;19.93;43.29
74573;BME280;73017;50.810;4.428;2024-02-26T13:00:22;99675.84;;;20.02;43.68
74573;BME280;73017;50.810;4.428;2024-02-26T13:02:50;99660.28;;;19.90;43.52